createdAt,value
2018-12-11T06:24:01.326Z,0.1
2018-12-11T06:26:01.082Z,0.2
2018-12-11T06:27:01.050Z,0.3
2018-12-11T06:29:01.225Z,0.4
2018-12-11T06:30:01.138Z,0.5
2018-12-11T06:32:01.117Z,0.6
2018-12-11T06:33:01.052Z,0.7
2018-12-11T06:34:01.199Z,0.9
2018-12-11T06:35:01.762Z,1.0
2018-12-11T06:36:01.086Z,1.1
2018-12-11T06:37:01.089Z,1.3
2018-12-11T06:38:01.091Z,1.5
2018-12-11T06:39:06.205Z,1.7
2018-12-11T06:40:01.053Z,1.9
2018-12-11T06:41:01.101Z,2.2
2018-12-11T06:42:01.127Z,2.5
2018-12-11T06:43:01.058Z,2.9
2018-12-11T06:44:01.229Z,3.4
2018-12-11T06:45:01.056Z,3.9
2018-12-11T06:46:01.055Z,4.6
2018-12-11T06:47:01.056Z,5.3
2018-12-11T06:48:01.117Z,6.1
2018-12-11T06:49:01.206Z,7.1
2018-12-11T06:50:01.059Z,8.3
2018-12-11T06:51:02.052Z,9.7
2018-12-11T06:52:01.064Z,11.3
2018-12-11T06:53:06.075Z,13.2
2018-12-11T06:54:01.239Z,15.4
2018-12-11T06:55:01.067Z,18.0
2018-12-11T06:56:01.096Z,21.1
2018-12-11T06:57:01.062Z,24.6
2018-12-11T06:58:01.122Z,28.7
2018-12-11T06:59:01.208Z,33.6
2018-12-11T07:00:01.068Z,39.3
2018-12-11T07:01:01.098Z,46.0
2018-12-11T07:03:01.111Z,55.2
2018-12-11T07:04:02.225Z,65.9
2018-12-11T07:05:01.084Z,78.1
2018-12-11T07:06:01.053Z,92.1
2018-12-11T07:07:06.263Z,108.1
2018-12-11T07:08:01.058Z,126.3
2018-12-11T07:09:01.257Z,146.8
2018-12-11T07:10:01.086Z,169.9
2018-12-11T07:11:01.098Z,195.9
2018-12-11T07:12:06.092Z,224.9
2018-12-11T07:13:01.053Z,257.3
2018-12-11T07:14:01.197Z,293.3
2018-12-11T07:15:01.057Z,333.3
2018-12-11T07:16:01.089Z,377.4
2018-12-11T07:17:06.053Z,425.9
2018-12-11T07:18:01.058Z,477.8
2018-12-11T07:19:01.227Z,534.3
2018-12-11T07:20:01.089Z,595.5
2018-12-11T07:21:01.093Z,661.7
2018-12-11T07:22:06.094Z,732.9
2018-12-11T07:23:01.053Z,809.3
2018-12-11T07:24:01.226Z,891.0
2018-12-11T07:25:01.055Z,978.3
2018-12-11T07:26:01.056Z,1071.3
2018-12-11T07:27:06.088Z,1170.1
2018-12-11T07:28:01.055Z,1274.7
2018-12-11T07:29:01.197Z,1385.1
2018-12-11T07:30:01.056Z,1501.5
2018-12-11T07:31:01.058Z,1623.8
2018-12-11T07:32:01.088Z,1752.1
2018-12-11T07:33:01.055Z,1886.3
2018-12-11T07:34:01.763Z,2026.5
2018-12-11T07:35:01.061Z,2173.0
2018-12-11T07:36:01.094Z,2325.6
2018-12-11T07:37:01.091Z,2484.7
2018-12-11T07:38:01.093Z,2650.3
2018-12-11T07:39:01.206Z,2822.3
2018-12-11T07:40:01.093Z,3000.7
2018-12-11T07:41:01.090Z,3186.2
2018-12-11T07:42:06.071Z,3379.5
2018-12-11T07:43:01.060Z,3580.2
2018-12-11T07:44:01.603Z,3788.0
2018-12-11T07:45:01.063Z,4002.5
2018-12-11T07:46:01.097Z,4222.9
2018-12-11T07:47:06.103Z,4449.3
2018-12-11T07:48:01.096Z,4681.3
2018-12-11T07:49:01.210Z,4918.7
2018-12-11T07:50:01.097Z,5161.3
2018-12-11T07:51:01.063Z,5408.7
2018-12-11T07:52:06.073Z,5660.2
2018-12-11T07:53:01.063Z,5915.7
2018-12-11T07:54:01.238Z,6176.1
2018-12-11T07:55:02.125Z,6440.7
2018-12-11T07:57:01.047Z,6728.1
2018-12-11T07:58:01.047Z,7019.1
2018-12-11T07:59:01.227Z,7313.6
2018-12-11T08:00:01.083Z,7611.7
2018-12-11T08:01:01.051Z,7912.5
2018-12-11T08:02:01.053Z,8215.7
2018-12-11T08:03:01.062Z,8520.5
2018-12-11T08:04:01.328Z,8826.0
2018-12-11T08:05:01.086Z,9131.7
2018-12-11T08:06:01.055Z,9437.9
2018-12-11T08:07:01.052Z,9744.7
2018-12-11T08:08:01.052Z,10052.4
2018-12-11T08:09:01.197Z,10360.9
2018-12-11T08:10:01.052Z,10668.7
2018-12-11T08:11:01.052Z,10977.0
2018-12-11T08:12:01.057Z,11269.7
2018-12-11T08:13:01.111Z,11567.7
2018-12-11T08:14:01.193Z,11875.3
2018-12-11T08:15:01.056Z,12191.1
2018-12-11T08:16:01.094Z,12496.0
2018-12-11T08:17:01.528Z,12806.1
2018-12-11T08:18:06.060Z,13118.7
2018-12-11T08:19:01.239Z,13444.2
2018-12-11T08:20:01.061Z,13765.7
2018-12-11T08:21:01.087Z,14088.7
2018-12-11T08:22:01.056Z,14411.2
2018-12-11T08:23:01.090Z,14737.6
2018-12-11T08:24:01.198Z,15046.4
2018-12-11T08:25:01.054Z,15367.3
2018-12-11T08:26:01.091Z,15677.1
2018-12-11T08:27:01.090Z,15994.7
2018-12-11T08:28:01.120Z,16345.7
2018-12-11T08:29:01.265Z,16673.7
2018-12-11T08:30:02.236Z,16954.5
2018-12-11T08:31:01.057Z,17239.1
2018-12-11T08:32:01.059Z,17504.6
2018-12-11T08:33:01.127Z,17809.7
2018-12-11T08:34:01.198Z,18131.4
2018-12-11T08:35:01.057Z,18444.1
2018-12-11T08:36:01.061Z,18707.5
2018-12-11T08:37:01.059Z,18950.0
2018-12-11T08:38:06.095Z,19162.5
2018-12-11T08:39:01.242Z,19376.1
2018-12-11T08:40:01.058Z,19562.3
2018-12-11T08:41:01.058Z,19770.1
2018-12-11T08:42:01.091Z,20012.3
2018-12-11T08:43:01.094Z,20229.1
2018-12-11T08:44:01.229Z,20469.8
2018-12-11T08:45:01.057Z,20747.5
2018-12-11T08:46:01.069Z,21010.9
2018-12-11T08:47:01.094Z,21249.9
2018-12-11T08:48:01.130Z,21497.5
2018-12-11T08:49:01.207Z,21742.0
2018-12-11T08:50:01.064Z,22067.1
2018-12-11T08:51:02.093Z,22559.1
2018-12-11T08:52:01.096Z,23069.7
2018-12-11T08:53:01.102Z,23651.5
2018-12-11T08:54:01.235Z,24091.5
2018-12-11T08:55:01.064Z,24460.2
2018-12-11T08:57:01.086Z,25796.9
2018-12-11T08:58:01.083Z,27419.5
2018-12-11T08:59:06.410Z,28884.6
2018-12-11T09:00:01.055Z,30220.2
2018-12-11T09:01:01.056Z,31757.8
2018-12-11T09:02:01.087Z,33309.9
2018-12-11T09:03:01.084Z,34766.9
2018-12-11T09:04:01.285Z,35850.2
2018-12-11T09:05:01.892Z,36465.2
2018-12-11T09:06:01.087Z,37343.0
2018-12-11T09:07:01.058Z,38690.9
2018-12-11T09:08:06.090Z,39783.3
2018-12-11T09:09:01.210Z,40395.6
2018-12-11T09:10:01.058Z,41022.5
2018-12-11T09:11:01.054Z,41666.9
2018-12-11T09:12:01.085Z,41751.2
2018-12-11T09:13:01.082Z,41322.5
2018-12-11T09:14:01.231Z,41193.1
2018-12-11T09:15:01.089Z,41403.2
2018-12-11T09:16:01.090Z,41199.1
2018-12-11T09:17:01.060Z,40815.7
2018-12-11T09:18:06.064Z,41390.7
2018-12-11T09:19:01.205Z,43095.9
2018-12-11T09:20:01.059Z,44770.7
2018-12-11T09:21:01.090Z,45333.1
2018-12-11T09:22:01.058Z,45637.9
2018-12-11T09:23:01.117Z,46835.5
2018-12-11T09:24:01.234Z,48279.2
2018-12-11T09:25:02.085Z,49395.6
2018-12-11T09:26:01.062Z,50986.7
2018-12-11T09:27:01.061Z,52450.6
2018-12-11T09:28:01.103Z,53836.1
2018-12-11T09:29:01.210Z,54539.4
2018-12-11T09:30:01.070Z,55312.1
2018-12-11T09:31:01.069Z,56283.3
2018-12-11T09:32:01.095Z,57379.5
2018-12-11T09:33:06.104Z,57684.1
2018-12-11T09:35:01.209Z,57007.1
2018-12-11T09:36:01.099Z,56197.5
2018-12-11T09:37:06.103Z,55402.0
2018-12-11T09:39:01.054Z,55617.3
2018-12-11T09:40:01.230Z,56002.5
2018-12-11T09:41:01.084Z,56839.9
2018-12-11T09:42:07.008Z,56884.7
2018-12-11T09:43:01.090Z,55776.9
2018-12-11T09:44:01.079Z,54889.9
2018-12-11T09:45:01.289Z,54167.1
2018-12-11T09:46:01.087Z,52894.2
2018-12-11T09:47:01.083Z,51500.1
2018-12-11T09:48:01.082Z,51035.5
2018-12-11T09:49:01.075Z,50663.7
2018-12-11T09:51:01.286Z,51794.7
2018-12-11T09:52:01.052Z,52908.8
2018-12-11T09:53:01.113Z,53544.8
2018-12-11T09:54:01.080Z,52815.7
2018-12-11T09:56:01.201Z,52593.2
2018-12-11T09:57:01.093Z,52011.2
2018-12-11T09:58:01.095Z,52513.7
2018-12-11T09:59:01.117Z,53743.1
2018-12-11T10:00:01.090Z,55314.7
2018-12-11T10:01:01.255Z,57125.9
2018-12-11T10:02:01.063Z,59052.9
2018-12-11T10:03:01.089Z,60091.7
2018-12-11T10:04:01.100Z,60155.6
2018-12-11T10:05:01.092Z,59486.9
2018-12-11T10:07:01.203Z,60400.4
2018-12-11T10:08:01.089Z,61427.8
2018-12-11T10:09:01.083Z,61536.9
2018-12-11T10:10:01.091Z,60806.7
2018-12-11T10:11:01.061Z,60496.7
2018-12-11T10:12:01.797Z,60676.8
2018-12-11T10:13:01.067Z,60709.9
2018-12-11T10:14:06.108Z,59986.1
2018-12-11T10:15:01.097Z,59383.7
2018-12-11T10:16:01.063Z,58934.4
2018-12-11T10:17:01.206Z,58737.0
2018-12-11T10:18:01.098Z,58334.1
2018-12-11T10:19:06.104Z,58692.3
2018-12-11T10:20:01.071Z,58845.3
2018-12-11T10:21:01.100Z,58161.9
2018-12-11T10:22:01.244Z,57330.9
2018-12-11T10:23:01.102Z,56439.1
2018-12-11T10:24:06.107Z,56247.5
2018-12-11T10:25:01.098Z,56088.1
2018-12-11T10:26:01.065Z,55544.1
2018-12-11T10:27:01.381Z,55201.5
2018-12-11T10:29:02.136Z,55032.2
2018-12-11T10:30:01.085Z,54862.8
2018-12-11T10:31:01.051Z,54735.5
2018-12-11T10:32:01.050Z,54314.1
2018-12-11T10:33:01.194Z,53567.7
2018-12-11T10:34:01.086Z,52809.0
2018-12-11T10:35:01.079Z,52226.7
2018-12-11T10:36:01.054Z,52242.6
2018-12-11T10:37:01.089Z,52072.5
2018-12-11T10:38:01.235Z,52570.5
2018-12-11T10:39:01.057Z,53462.3
2018-12-11T10:40:01.092Z,53796.5
2018-12-11T10:41:01.056Z,54031.6
2018-12-11T10:42:01.054Z,54408.4
2018-12-11T10:43:01.197Z,54491.9
2018-12-11T10:44:01.057Z,54234.2
2018-12-11T10:45:01.118Z,53954.8
2018-12-11T10:46:01.974Z,53480.7
2018-12-11T10:47:01.060Z,53067.1
2018-12-11T10:48:01.238Z,52808.9
2018-12-11T10:49:01.055Z,52743.3
2018-12-11T10:50:01.119Z,52517.1
2018-12-11T10:51:01.058Z,51512.5
2018-12-11T10:52:01.089Z,50887.7
2018-12-11T10:53:01.904Z,49689.9
2018-12-11T10:54:01.059Z,48075.0
2018-12-11T10:55:01.088Z,47006.6
2018-12-11T10:56:01.057Z,46098.4
2018-12-11T10:57:01.059Z,45455.8
2018-12-11T10:58:01.233Z,45299.1
2018-12-11T10:59:01.089Z,45218.7
2018-12-11T11:00:01.091Z,45383.8
2018-12-11T11:01:01.059Z,45629.7
2018-12-11T11:02:01.067Z,45996.1
2018-12-11T11:03:01.229Z,46457.5
2018-12-11T11:04:01.095Z,47281.1
2018-12-11T11:05:01.091Z,48414.5
2018-12-11T11:06:01.058Z,49720.7
2018-12-11T11:07:01.059Z,51000.4
2018-12-11T11:08:01.239Z,52419.5
2018-12-11T11:09:01.091Z,54034.5
2018-12-11T11:10:01.095Z,55580.3
2018-12-11T11:11:01.095Z,57143.1
2018-12-11T11:12:01.059Z,58485.3
2018-12-11T11:13:01.302Z,59671.3
2018-12-11T11:14:01.094Z,60389.7
2018-12-11T11:15:01.136Z,60916.9
2018-12-11T11:16:01.060Z,61030.2
2018-12-11T11:17:01.075Z,61044.1
2018-12-11T11:18:01.208Z,60811.5
2018-12-11T11:19:01.073Z,60164.5
2018-12-11T11:20:01.095Z,59297.9
2018-12-11T11:21:01.071Z,58333.6
2018-12-11T11:22:01.065Z,57613.0
2018-12-11T11:23:01.205Z,56892.3
2018-12-11T11:24:01.068Z,55928.7
2018-12-11T11:25:01.096Z,55020.8
2018-12-11T11:26:01.098Z,54105.4
2018-12-11T11:27:01.065Z,53313.9
2018-12-11T11:28:01.358Z,52433.9
2018-12-11T11:30:01.049Z,52051.9
2018-12-11T11:31:01.051Z,51797.1
2018-12-11T11:32:01.050Z,51962.3
2018-12-11T11:33:01.052Z,52170.3
2018-12-11T11:34:01.199Z,52452.3
2018-12-11T11:35:01.089Z,53088.9
2018-12-11T11:36:01.075Z,53755.3
2018-12-11T11:37:01.049Z,54526.1
2018-12-11T11:38:01.090Z,54737.1
2018-12-11T11:39:01.195Z,55049.3
2018-12-11T11:40:01.084Z,55514.7
2018-12-11T11:41:06.088Z,55773.8
2018-12-11T11:42:01.088Z,56330.7
2018-12-11T11:43:01.086Z,56579.0
2018-12-11T11:44:01.197Z,56612.3
2018-12-11T11:45:01.055Z,56767.5
2018-12-11T11:46:01.228Z,56636.8
2018-12-11T11:47:01.087Z,56361.3
2018-12-11T11:48:01.059Z,55970.2
2018-12-11T11:49:01.230Z,55502.2
2018-12-11T11:50:01.106Z,54476.9
2018-12-11T11:51:01.091Z,53275.1
2018-12-11T11:52:01.103Z,51948.3
2018-12-11T11:53:01.088Z,50971.9
2018-12-11T11:54:01.240Z,49849.5
2018-12-11T11:55:01.094Z,48449.3
2018-12-11T11:56:01.093Z,47364.4
2018-12-11T11:57:01.088Z,45916.5
2018-12-11T11:58:01.092Z,44670.3
2018-12-11T11:59:01.242Z,43635.5
2018-12-11T12:00:01.115Z,42435.4
2018-12-11T12:01:06.104Z,41489.3
2018-12-11T12:02:01.060Z,40755.2
2018-12-11T12:03:01.059Z,40132.1
2018-12-11T12:04:01.265Z,39720.7
2018-12-11T12:05:01.063Z,39476.1
2018-12-11T12:06:01.096Z,39454.2
2018-12-11T12:07:01.065Z,39624.0
2018-12-11T12:08:02.272Z,39657.6
2018-12-11T12:09:01.237Z,39711.5
2018-12-11T12:10:06.099Z,39993.2
2018-12-11T12:11:01.097Z,40106.9
2018-12-11T12:12:01.213Z,40135.8
2018-12-11T12:13:01.064Z,40062.4
2018-12-11T12:14:01.278Z,40204.1
2018-12-11T12:16:01.047Z,40140.1
2018-12-11T12:17:01.050Z,39928.8
2018-12-11T12:18:01.051Z,39614.2
2018-12-11T12:19:01.082Z,39355.5
2018-12-11T12:20:01.222Z,38700.4
2018-12-11T12:21:01.053Z,37892.6
2018-12-11T12:22:01.054Z,36872.1
2018-12-11T12:23:01.083Z,35765.1
2018-12-11T12:24:01.049Z,34658.8
2018-12-11T12:25:03.631Z,33565.2
2018-12-11T12:26:01.049Z,32761.7
2018-12-11T12:27:01.051Z,32050.7
2018-12-11T12:28:01.052Z,31699.4
2018-12-11T12:29:01.865Z,31455.8
2018-12-11T12:30:01.229Z,31036.6
2018-12-11T12:31:01.055Z,30582.5
2018-12-11T12:32:01.054Z,30163.8
2018-12-11T12:33:01.093Z,29881.3
2018-12-11T12:34:01.112Z,29576.3
2018-12-11T12:35:01.230Z,29561.5
2018-12-11T12:36:01.086Z,29847.3
2018-12-11T12:37:06.060Z,29919.3
2018-12-11T12:38:01.088Z,29923.2
2018-12-11T12:39:01.093Z,29911.9
2018-12-11T12:40:01.230Z,29872.4
2018-12-11T12:41:01.213Z,29697.5
2018-12-11T12:42:01.055Z,29360.9
2018-12-11T12:43:01.087Z,28774.3
2018-12-11T12:44:01.056Z,28080.3
2018-12-11T12:45:01.202Z,27418.3
2018-12-11T12:46:02.105Z,26980.4
2018-12-11T12:47:01.155Z,26596.9
2018-12-11T12:48:01.092Z,25917.9
2018-12-11T12:49:01.102Z,25166.9
2018-12-11T12:50:01.198Z,24384.8
2018-12-11T12:51:01.059Z,23569.9
2018-12-11T12:52:01.058Z,22981.7
2018-12-11T12:53:01.057Z,22454.8
2018-12-11T12:54:01.083Z,22049.1
2018-12-11T12:55:01.204Z,21474.7
2018-12-11T12:56:01.063Z,20700.5
2018-12-11T12:57:01.061Z,20297.7
2018-12-11T12:58:01.067Z,19970.3
2018-12-11T12:59:01.123Z,19695.0
2018-12-11T13:00:01.267Z,19664.5
2018-12-11T13:01:01.062Z,19671.7
2018-12-11T13:02:01.068Z,19604.3
2018-12-11T13:03:02.075Z,19681.9
2018-12-11T13:04:06.068Z,19869.7
2018-12-11T13:05:01.267Z,19887.4
2018-12-11T13:07:01.052Z,19847.4
2018-12-11T13:08:01.085Z,19836.1
2018-12-11T13:09:01.116Z,20010.9
2018-12-11T13:10:01.098Z,20203.8
2018-12-11T13:11:01.236Z,20433.4
2018-12-11T13:12:01.056Z,20626.8
2018-12-11T13:13:01.079Z,20512.9
2018-12-11T13:14:01.952Z,20379.1
2018-12-11T13:15:06.898Z,20185.1
2018-12-11T13:16:01.240Z,19713.7
2018-12-11T13:17:01.053Z,19180.7
2018-12-11T13:18:01.077Z,18699.3
2018-12-11T13:19:01.054Z,18182.7
2018-12-11T13:20:01.089Z,17568.1
2018-12-11T13:21:01.197Z,17140.5
2018-12-11T13:22:01.057Z,16748.1
2018-12-11T13:23:01.118Z,16389.1
2018-12-11T13:24:01.236Z,15935.8
2018-12-11T13:25:01.089Z,15497.5
2018-12-11T13:26:01.230Z,15129.9
2018-12-11T13:27:01.055Z,14821.7
2018-12-11T13:28:01.082Z,14476.3
2018-12-11T13:29:02.225Z,14110.7
2018-12-11T13:30:01.091Z,13838.9
2018-12-11T13:31:01.196Z,13640.3
2018-12-11T13:32:01.089Z,13525.7
2018-12-11T13:33:01.092Z,13447.3
2018-12-11T13:34:06.097Z,13436.5
2018-12-11T13:35:01.093Z,13429.7
2018-12-11T13:36:01.273Z,13311.9
2018-12-11T13:37:01.064Z,13172.1
2018-12-11T13:38:01.061Z,13061.3
2018-12-11T13:39:06.133Z,12906.1
2018-12-11T13:40:01.060Z,12715.5
2018-12-11T13:41:01.434Z,12512.2
2018-12-11T13:42:01.095Z,12429.2
2018-12-11T13:43:01.061Z,12379.9
2018-12-11T13:44:01.098Z,12255.5
2018-12-11T13:45:01.067Z,12104.5
2018-12-11T13:46:02.243Z,11913.3
2018-12-11T13:47:01.067Z,11746.5
2018-12-11T13:49:01.048Z,11494.3
2018-12-11T13:50:01.054Z,11219.1
2018-12-11T13:51:01.186Z,10978.3
2018-12-11T13:52:01.050Z,10822.1
2018-12-11T13:53:01.050Z,10719.2
2018-12-11T13:54:01.047Z,10549.7
2018-12-11T13:55:01.047Z,10329.5
2018-12-11T13:56:01.256Z,10085.8
2018-12-11T13:57:01.054Z,9888.0
2018-12-11T13:58:01.054Z,9676.1
2018-12-11T13:59:06.059Z,9489.1
2018-12-11T14:00:01.054Z,9397.2
2018-12-11T14:01:01.193Z,9307.3
2018-12-11T14:02:01.053Z,9166.4
2018-12-11T14:03:02.353Z,8907.3
2018-12-11T14:04:01.087Z,8662.3
2018-12-11T14:05:01.059Z,8424.3
2018-12-11T14:06:01.295Z,8289.6
2018-12-11T14:07:01.090Z,8244.6
2018-12-11T14:08:01.980Z,8204.1
2018-12-11T14:09:06.056Z,8176.3
2018-12-11T14:10:01.058Z,8162.4
2018-12-11T14:12:01.468Z,8037.4
2018-12-11T14:13:01.061Z,7858.8
2018-12-11T14:14:01.082Z,7648.9
2018-12-11T14:15:01.089Z,7427.0
2018-12-11T14:16:01.491Z,7207.3
2018-12-11T14:17:01.228Z,7032.3
2018-12-11T14:18:01.063Z,6895.5
2018-12-11T14:19:10.486Z,6778.2
2018-12-11T14:20:02.092Z,6650.3
2018-12-11T14:21:01.060Z,6469.7
2018-12-11T14:22:01.205Z,6229.7
2018-12-11T14:23:04.649Z,5970.3
2018-12-11T14:24:06.062Z,5714.1
2018-12-11T14:25:01.091Z,5457.1
2018-12-11T14:26:03.858Z,5242.3
2018-12-11T14:27:01.213Z,5073.9
2018-12-11T14:28:04.567Z,4952.2
2018-12-11T14:29:06.095Z,4831.0
2018-12-11T14:30:01.069Z,4693.5
2018-12-11T14:32:01.321Z,4543.1
2018-12-11T14:33:01.083Z,4406.8
2018-12-11T14:34:01.076Z,4289.5
2018-12-11T14:35:03.142Z,4181.1
2018-12-11T14:36:01.047Z,4047.1
2018-12-11T14:37:05.447Z,3855.5
2018-12-11T14:38:01.079Z,3632.9
2018-12-11T14:39:02.218Z,3416.7
2018-12-11T14:40:01.077Z,3245.9
2018-12-11T14:41:01.048Z,3135.6
2018-12-11T14:42:01.193Z,3023.9
2018-12-11T14:43:01.048Z,2880.3
2018-12-11T14:44:03.262Z,2731.9
2018-12-11T14:45:01.086Z,2616.5
2018-12-11T14:46:01.092Z,2522.4
2018-12-11T14:47:01.197Z,2455.3
2018-12-11T14:48:01.084Z,2390.4
2018-12-11T14:49:01.903Z,2312.7
2018-12-11T14:50:01.082Z,2234.1
2018-12-11T14:51:01.082Z,2164.3
2018-12-11T14:52:01.194Z,2105.7
2018-12-11T14:53:02.243Z,2053.2
2018-12-11T14:54:01.112Z,1990.5
2018-12-11T14:55:01.075Z,1926.8
2018-12-11T14:56:01.058Z,1869.5
2018-12-11T14:57:01.199Z,1825.0
2018-12-11T14:58:01.086Z,1789.3
2018-12-11T14:59:01.089Z,1745.8
2018-12-11T15:00:01.055Z,1679.3
2018-12-11T15:01:01.053Z,1605.5
2018-12-11T15:02:01.197Z,1533.4
2018-12-11T15:03:01.055Z,1461.2
2018-12-11T15:04:01.081Z,1390.5
2018-12-11T15:05:01.084Z,1319.1
2018-12-11T15:06:01.056Z,1244.7
2018-12-11T15:07:01.287Z,1172.9
2018-12-11T15:08:01.092Z,1102.3
2018-12-11T15:09:01.159Z,1037.5
2018-12-11T15:10:03.185Z,969.5
2018-12-11T15:11:01.701Z,894.9
2018-12-11T15:12:01.198Z,817.1
2018-12-11T15:13:01.061Z,741.3
2018-12-11T15:14:01.119Z,666.5
2018-12-11T15:15:01.058Z,597.3
2018-12-11T15:16:01.090Z,532.1
2018-12-11T15:17:01.234Z,470.9
2018-12-11T15:18:01.094Z,418.9
2018-12-11T15:19:06.071Z,377.3
2018-12-11T15:20:01.063Z,345.5
2018-12-11T15:21:01.060Z,320.1
2018-12-11T15:22:01.266Z,296.1
2018-12-11T15:23:01.284Z,271.2
2018-12-11T15:24:01.105Z,247.7
2018-12-11T15:25:01.061Z,228.2
2018-12-11T15:26:01.060Z,209.3
2018-12-11T15:27:01.202Z,187.6
2018-12-11T15:28:02.146Z,165.3
2018-12-11T15:29:01.103Z,145.0
2018-12-11T15:30:01.066Z,127.0
2018-12-11T15:32:01.250Z,111.4
2018-12-11T15:33:01.048Z,96.9
2018-12-11T15:34:01.051Z,83.5
2018-12-11T15:35:01.080Z,72.1
2018-12-11T15:36:01.140Z,61.9
2018-12-11T15:37:01.195Z,53.1
2018-12-11T15:38:01.084Z,45.6
2018-12-11T15:39:01.054Z,39.3
2018-12-11T15:40:06.070Z,33.8
2018-12-11T15:41:01.941Z,28.7
2018-12-11T15:42:01.195Z,24.3
2018-12-11T15:43:01.087Z,20.7
2018-12-11T15:44:01.056Z,17.7
2018-12-11T15:45:01.559Z,15.1
2018-12-11T15:46:01.206Z,12.6
2018-12-11T15:47:01.230Z,10.6
2018-12-11T15:48:01.051Z,8.9
2018-12-11T15:49:01.242Z,7.5
2018-12-11T15:50:01.058Z,6.3
2018-12-11T15:51:01.077Z,5.3
2018-12-11T15:52:01.194Z,4.5
2018-12-11T15:53:01.087Z,3.9
2018-12-11T15:54:02.107Z,3.3
2018-12-11T15:55:01.054Z,2.9
2018-12-11T15:56:01.079Z,2.5
2018-12-11T15:57:01.201Z,2.1
2018-12-11T15:58:01.056Z,1.9
2018-12-11T15:59:01.056Z,1.7
2018-12-11T16:00:01.057Z,1.5
2018-12-11T16:01:06.054Z,1.3
2018-12-11T16:02:01.273Z,1.1
2018-12-11T16:03:01.056Z,0.9
2018-12-11T16:04:01.059Z,0.8
2018-12-11T16:05:01.060Z,0.7
2018-12-11T16:06:01.263Z,0.6
2018-12-11T16:07:01.229Z,0.5
2018-12-11T16:09:01.094Z,0.4
2018-12-11T16:10:01.063Z,0.3
2018-12-11T16:12:01.233Z,0.2
2018-12-11T16:13:01.098Z,0.1
